createdAt,value
2017-02-21T00:00:23.184Z,0
2017-02-21T00:01:35.862Z,0
2017-02-21T00:02:48.925Z,0
2017-02-21T00:04:02.001Z,0
2017-02-21T00:05:14.302Z,0
2017-02-21T00:06:27.359Z,0
2017-02-21T00:07:40.040Z,0
2017-02-21T00:08:53.102Z,0
2017-02-21T00:10:06.171Z,0
2017-02-21T00:11:18.468Z,0
2017-02-21T00:12:31.596Z,0
2017-02-21T00:13:44.667Z,0
2017-02-21T00:14:57.984Z,0
2017-02-21T00:16:11.076Z,0
2017-02-21T00:17:24.132Z,0
2017-02-21T00:18:36.828Z,0
2017-02-21T00:19:49.522Z,0
2017-02-21T00:21:02.568Z,0
2017-02-21T00:22:15.667Z,0
2017-02-21T00:23:28.730Z,0
2017-02-21T00:24:41.763Z,0
2017-02-21T00:25:54.060Z,0
2017-02-21T00:27:07.142Z,0
2017-02-21T00:28:19.461Z,0
2017-02-21T00:29:32.561Z,0
2017-02-21T00:30:45.660Z,0
2017-02-21T00:31:58.711Z,0
2017-02-21T00:33:11.784Z,0
2017-02-21T00:34:24.877Z,0
2017-02-21T00:35:37.572Z,0
2017-02-21T00:36:50.642Z,0
2017-02-21T00:38:03.712Z,0
2017-02-21T00:39:16.463Z,0
2017-02-21T00:40:29.529Z,0
2017-02-21T00:41:42.599Z,0
2017-02-21T00:42:55.653Z,0
2017-02-21T00:44:08.708Z,0
2017-02-21T00:45:21.765Z,0
2017-02-21T00:46:34.831Z,0
2017-02-21T00:47:47.507Z,0
2017-02-21T00:49:00.199Z,0
2017-02-21T00:50:12.895Z,0
2017-02-21T00:51:25.175Z,0
2017-02-21T00:52:38.463Z,0
2017-02-21T00:53:51.575Z,0
2017-02-21T00:55:04.652Z,0
2017-02-21T00:56:17.702Z,0
2017-02-21T00:57:30.398Z,0
2017-02-21T00:58:43.444Z,0
2017-02-21T00:59:56.539Z,0
2017-02-21T01:01:09.609Z,0
2017-02-21T01:02:22.332Z,0
2017-02-21T01:03:35.403Z,0
2017-02-21T01:04:48.104Z,0
2017-02-21T01:06:01.145Z,0
2017-02-21T01:07:14.254Z,0
2017-02-21T01:08:27.299Z,0
2017-02-21T01:09:40.382Z,0
2017-02-21T01:10:53.091Z,0
2017-02-21T01:12:06.135Z,0
2017-02-21T01:13:18.459Z,0
2017-02-21T01:14:31.512Z,0
2017-02-21T01:15:44.582Z,0
2017-02-21T01:16:57.657Z,0
2017-02-21T01:18:10.378Z,0
2017-02-21T01:19:23.074Z,0
2017-02-21T01:20:36.136Z,0
2017-02-21T01:21:48.841Z,0
2017-02-21T01:23:01.563Z,0
2017-02-21T01:24:14.203Z,0
2017-02-21T01:25:27.524Z,0
2017-02-21T01:26:40.595Z,0
2017-02-21T01:27:53.669Z,0
2017-02-21T01:29:06.391Z,0
2017-02-21T01:30:19.510Z,0
2017-02-21T01:31:32.571Z,0
2017-02-21T01:32:45.655Z,0
2017-02-21T01:33:57.620Z,0
2017-02-21T01:35:10.719Z,0
2017-02-21T01:36:23.413Z,0
2017-02-21T01:37:36.104Z,0
2017-02-21T01:38:48.822Z,0
2017-02-21T01:40:01.875Z,0
2017-02-21T01:41:14.550Z,0
2017-02-21T01:42:27.612Z,0
2017-02-21T01:43:40.665Z,0
2017-02-21T01:44:53.719Z,0
2017-02-21T01:46:06.804Z,0
2017-02-21T01:47:20.192Z,0
2017-02-21T01:48:32.496Z,0
2017-02-21T01:49:45.522Z,0
2017-02-21T01:50:58.615Z,0
2017-02-21T01:52:10.226Z,0
2017-02-21T01:53:22.904Z,0
2017-02-21T01:54:35.980Z,0
2017-02-21T01:55:48.652Z,0
2017-02-21T01:57:01.771Z,0
2017-02-21T01:58:14.856Z,0
2017-02-21T01:59:27.905Z,0
2017-02-21T02:00:41.005Z,0
2017-02-21T02:01:53.681Z,0
2017-02-21T02:03:06.764Z,0
2017-02-21T02:04:19.825Z,0
2017-02-21T02:05:32.893Z,0
2017-02-21T02:06:45.984Z,0
2017-02-21T02:07:59.030Z,0
2017-02-21T02:09:12.143Z,0
2017-02-21T02:10:25.222Z,0
2017-02-21T02:11:37.918Z,0
2017-02-21T02:12:50.981Z,0
2017-02-21T02:14:03.694Z,0
2017-02-21T02:15:16.780Z,0
2017-02-21T02:16:29.876Z,0
2017-02-21T02:17:42.943Z,0
2017-02-21T02:18:56.047Z,0
2017-02-21T02:20:09.037Z,0
2017-02-21T02:21:22.102Z,0
2017-02-21T02:22:35.212Z,0
2017-02-21T02:23:47.879Z,0
2017-02-21T02:25:00.197Z,0
2017-02-21T02:26:12.470Z,0
2017-02-21T02:27:25.517Z,0
2017-02-21T02:28:38.184Z,0
2017-02-21T02:29:51.286Z,0
2017-02-21T02:31:04.371Z,0
2017-02-21T02:32:17.068Z,0
2017-02-21T02:33:30.124Z,0
2017-02-21T02:34:43.189Z,0
2017-02-21T02:35:56.241Z,0
2017-02-21T02:37:09.334Z,0
2017-02-21T02:38:22.394Z,0
2017-02-21T02:39:35.450Z,0
2017-02-21T02:40:48.571Z,0
2017-02-21T02:42:01.670Z,0
2017-02-21T02:43:14.753Z,0
2017-02-21T02:44:27.835Z,0
2017-02-21T02:45:40.510Z,0
2017-02-21T02:46:53.554Z,0
2017-02-21T02:48:06.247Z,0
2017-02-21T02:49:19.366Z,0
2017-02-21T02:50:32.466Z,0
2017-02-21T02:51:45.165Z,0
2017-02-21T02:52:57.473Z,0
2017-02-21T02:54:10.190Z,0
2017-02-21T02:55:23.261Z,0
2017-02-21T02:56:35.939Z,0
2017-02-21T02:57:49.006Z,0
2017-02-21T02:59:02.106Z,0
2017-02-21T03:00:15.195Z,0
2017-02-21T03:01:28.248Z,0
2017-02-21T03:02:41.293Z,0
2017-02-21T03:03:54.359Z,0
2017-02-21T03:05:07.435Z,0
2017-02-21T03:06:20.481Z,0
2017-02-21T03:07:33.547Z,0
2017-02-21T03:08:46.625Z,0
2017-02-21T03:09:59.748Z,0
2017-02-21T03:11:12.460Z,0
2017-02-21T03:12:25.538Z,0
2017-02-21T03:13:38.631Z,0
2017-02-21T03:14:51.731Z,0
2017-02-21T03:16:04.823Z,0
2017-02-21T03:17:17.873Z,0
2017-02-21T03:18:30.956Z,0
2017-02-21T03:19:44.011Z,0
2017-02-21T03:20:57.081Z,0
2017-02-21T03:22:10.161Z,0
2017-02-21T03:23:23.255Z,0
2017-02-21T03:24:36.365Z,0
2017-02-21T03:25:49.422Z,0
2017-02-21T03:27:02.135Z,0
2017-02-21T03:28:15.223Z,0
2017-02-21T03:29:28.330Z,0
2017-02-21T03:30:41.055Z,0
2017-02-21T03:31:54.112Z,0
2017-02-21T03:33:07.171Z,0
2017-02-21T03:34:20.263Z,0
2017-02-21T03:35:32.936Z,0
2017-02-21T03:36:45.607Z,0
2017-02-21T03:37:58.306Z,0
2017-02-21T03:39:10.970Z,0
2017-02-21T03:40:24.035Z,0
2017-02-21T03:41:36.728Z,0
2017-02-21T03:42:49.008Z,0
2017-02-21T03:44:01.724Z,0
2017-02-21T03:45:14.399Z,0
2017-02-21T03:46:27.473Z,0
2017-02-21T03:47:40.558Z,0
2017-02-21T03:48:53.683Z,0
2017-02-21T03:50:06.757Z,0
2017-02-21T03:51:19.821Z,0
2017-02-21T03:52:32.925Z,0
2017-02-21T03:53:45.200Z,0
2017-02-21T03:54:58.287Z,0
2017-02-21T03:56:11.362Z,0
2017-02-21T03:57:24.055Z,0
2017-02-21T03:58:37.103Z,0
2017-02-21T03:59:50.191Z,0
2017-02-21T04:01:03.299Z,0
2017-02-21T04:02:16.384Z,0
2017-02-21T04:03:29.438Z,0
2017-02-21T04:04:42.483Z,0
2017-02-21T04:05:55.546Z,0
2017-02-21T04:07:08.171Z,0
2017-02-21T04:08:21.222Z,0
2017-02-21T04:09:33.917Z,0
2017-02-21T04:10:46.991Z,0
2017-02-21T04:11:59.309Z,0
2017-02-21T04:13:12.410Z,0
2017-02-21T04:14:25.079Z,0
2017-02-21T04:15:38.200Z,0
2017-02-21T04:16:51.248Z,0
2017-02-21T04:18:04.343Z,0
2017-02-21T04:19:17.402Z,0
2017-02-21T04:20:30.100Z,0
2017-02-21T04:21:43.150Z,0
2017-02-21T04:22:56.222Z,0
2017-02-21T04:24:08.945Z,0
2017-02-21T04:25:22.024Z,0
2017-02-21T04:26:35.111Z,0
2017-02-21T04:27:47.805Z,0
2017-02-21T04:29:00.855Z,0
2017-02-21T04:30:13.571Z,0
2017-02-21T04:31:26.671Z,0
2017-02-21T04:32:39.363Z,0
2017-02-21T04:33:52.405Z,0
2017-02-21T04:35:05.101Z,0
2017-02-21T04:36:18.155Z,0
2017-02-21T04:37:31.204Z,0
2017-02-21T04:38:44.268Z,0
2017-02-21T04:39:56.945Z,0
2017-02-21T04:41:10.003Z,0
2017-02-21T04:42:22.686Z,0
2017-02-21T04:43:35.749Z,0
2017-02-21T04:44:48.828Z,0
2017-02-21T04:46:01.918Z,0
2017-02-21T04:47:14.964Z,0
2017-02-21T04:48:27.639Z,0
2017-02-21T04:49:40.334Z,0
2017-02-21T04:50:53.405Z,0
2017-02-21T04:52:06.474Z,0
2017-02-21T04:53:19.564Z,0
2017-02-21T04:54:32.639Z,0
2017-02-21T04:55:45.319Z,0
2017-02-21T04:56:58.044Z,0
2017-02-21T04:58:11.118Z,0
2017-02-21T04:59:24.198Z,0
2017-02-21T05:00:37.272Z,0
2017-02-21T05:01:50.385Z,0
2017-02-21T05:03:03.067Z,0
2017-02-21T05:04:16.125Z,0
2017-02-21T05:05:29.270Z,0
2017-02-21T05:06:42.378Z,0
2017-02-21T05:07:55.070Z,0
2017-02-21T05:09:08.141Z,0
2017-02-21T05:10:21.219Z,0
2017-02-21T05:11:34.300Z,0
2017-02-21T05:12:47.382Z,0
2017-02-21T05:14:00.427Z,0
2017-02-21T05:15:13.120Z,0
2017-02-21T05:16:26.190Z,0
2017-02-21T05:17:38.865Z,0
2017-02-21T05:18:51.557Z,0
2017-02-21T05:20:04.245Z,0
2017-02-21T05:21:16.901Z,0
2017-02-21T05:22:29.953Z,0
2017-02-21T05:23:43.018Z,0
2017-02-21T05:24:56.112Z,0
2017-02-21T05:26:08.788Z,0
2017-02-21T05:27:21.904Z,0
2017-02-21T05:28:34.952Z,0
2017-02-21T05:29:47.650Z,0
2017-02-21T05:31:00.812Z,0
2017-02-21T05:32:13.491Z,0
2017-02-21T05:33:26.562Z,0
2017-02-21T05:34:39.621Z,0
2017-02-21T05:35:52.674Z,0
2017-02-21T05:37:04.950Z,0
2017-02-21T05:38:17.645Z,0
2017-02-21T05:39:30.717Z,0
2017-02-21T05:40:43.805Z,0
2017-02-21T05:41:56.907Z,0
2017-02-21T05:43:09.977Z,0
2017-02-21T05:44:23.074Z,0
2017-02-21T05:45:36.120Z,0
2017-02-21T05:46:49.233Z,0
2017-02-21T05:48:02.562Z,0
2017-02-21T05:49:15.657Z,0
2017-02-21T05:50:28.746Z,0
2017-02-21T05:51:41.796Z,0
2017-02-21T05:52:54.895Z,0
2017-02-21T05:54:07.934Z,0
2017-02-21T05:55:20.984Z,0
2017-02-21T05:56:34.055Z,0
2017-02-21T05:57:46.750Z,0
2017-02-21T05:58:59.824Z,0
2017-02-21T06:00:12.549Z,0
2017-02-21T06:01:25.659Z,0
2017-02-21T06:02:38.738Z,0
2017-02-21T06:03:51.801Z,0
2017-02-21T06:05:04.876Z,5
2017-02-21T06:06:17.993Z,5
2017-02-21T06:07:31.085Z,5
2017-02-21T06:08:44.189Z,5
2017-02-21T06:09:56.834Z,5
2017-02-21T06:11:09.909Z,5
2017-02-21T06:12:22.972Z,5
2017-02-21T06:13:36.040Z,5
2017-02-21T06:14:48.724Z,10
2017-02-21T06:16:01.767Z,10
2017-02-21T06:17:14.815Z,10
2017-02-21T06:18:27.880Z,10
2017-02-21T06:19:40.956Z,10
2017-02-21T06:20:54.265Z,10
2017-02-21T06:22:07.339Z,10
2017-02-21T06:23:20.381Z,10
2017-02-21T06:24:33.452Z,10
2017-02-21T06:25:46.514Z,10
2017-02-21T06:26:59.577Z,10
2017-02-21T06:28:12.651Z,10
2017-02-21T06:29:25.323Z,10
2017-02-21T06:30:38.389Z,10
2017-02-21T06:31:51.460Z,10
2017-02-21T06:33:04.530Z,10
2017-02-21T06:34:17.255Z,10
2017-02-21T06:35:30.352Z,10
2017-02-21T06:36:43.449Z,10
2017-02-21T06:37:56.560Z,15
2017-02-21T06:39:09.639Z,20
2017-02-21T06:40:22.706Z,20
2017-02-21T06:41:35.806Z,25
2017-02-21T06:42:47.756Z,30
2017-02-21T06:44:00.791Z,40
2017-02-21T06:45:13.457Z,45
2017-02-21T06:46:26.482Z,55
2017-02-21T06:47:39.180Z,50
2017-02-21T06:48:51.878Z,50
2017-02-21T06:50:04.948Z,45
2017-02-21T06:51:17.225Z,45
2017-02-21T06:52:30.286Z,45
2017-02-21T06:53:43.457Z,50
2017-02-21T06:54:56.557Z,55
2017-02-21T06:56:09.637Z,55
2017-02-21T06:57:22.316Z,50
2017-02-21T06:58:35.367Z,45
2017-02-21T06:59:48.470Z,45
2017-02-21T07:01:01.547Z,45
2017-02-21T07:02:14.266Z,50
2017-02-21T07:03:27.331Z,50
2017-02-21T07:04:40.399Z,55
2017-02-21T07:05:53.499Z,65
2017-02-21T07:07:06.570Z,70
2017-02-21T07:08:19.279Z,75
2017-02-21T07:09:31.960Z,85
2017-02-21T07:10:45.007Z,95
2017-02-21T07:11:58.154Z,105
2017-02-21T07:13:10.870Z,110
2017-02-21T07:14:23.900Z,115
2017-02-21T07:15:36.955Z,115
2017-02-21T07:16:49.241Z,105
2017-02-21T07:18:02.300Z,90
2017-02-21T07:19:15.020Z,80
2017-02-21T07:20:28.099Z,65
2017-02-21T07:21:40.798Z,60
2017-02-21T07:22:53.463Z,65
2017-02-21T07:24:06.515Z,70
2017-02-21T07:25:18.808Z,75
2017-02-21T07:26:31.900Z,80
2017-02-21T07:27:44.949Z,85
2017-02-21T07:28:57.647Z,95
2017-02-21T07:30:09.969Z,105
2017-02-21T07:31:22.661Z,115
2017-02-21T07:32:35.708Z,115
2017-02-21T07:33:48.775Z,120
2017-02-21T07:35:01.875Z,120
2017-02-21T07:36:14.942Z,110
2017-02-21T07:37:27.638Z,120
2017-02-21T07:38:40.738Z,130
2017-02-21T07:39:53.408Z,130
2017-02-21T07:41:06.453Z,130
2017-02-21T07:42:19.813Z,130
2017-02-21T07:43:32.896Z,160
2017-02-21T07:44:45.596Z,180
2017-02-21T07:45:58.289Z,170
2017-02-21T07:47:11.360Z,175
2017-02-21T07:48:24.468Z,165
2017-02-21T07:49:37.172Z,140
2017-02-21T07:50:50.238Z,140
2017-02-21T07:52:03.288Z,130
2017-02-21T07:53:15.589Z,120
2017-02-21T07:54:28.622Z,125
2017-02-21T07:55:41.679Z,125
2017-02-21T07:56:54.373Z,135
2017-02-21T07:58:06.677Z,125
2017-02-21T07:59:19.030Z,110
2017-02-21T08:00:32.131Z,100
2017-02-21T08:01:44.813Z,90
2017-02-21T08:02:57.477Z,95
2017-02-21T08:04:10.174Z,95
2017-02-21T08:05:22.860Z,90
2017-02-21T08:06:35.917Z,90
2017-02-21T08:07:48.642Z,100
2017-02-21T08:09:01.751Z,70
2017-02-21T08:10:14.826Z,50
2017-02-21T08:11:27.917Z,50
2017-02-21T08:12:40.622Z,55
2017-02-21T08:13:53.310Z,50
2017-02-21T08:15:06.380Z,50
2017-02-21T08:16:19.081Z,60
2017-02-21T08:17:32.174Z,65
2017-02-21T08:18:45.279Z,70
2017-02-21T08:19:57.965Z,70
2017-02-21T08:21:11.043Z,55
2017-02-21T08:22:24.109Z,50
2017-02-21T08:23:36.775Z,65
2017-02-21T08:24:49.494Z,55
2017-02-21T08:26:02.165Z,50
2017-02-21T08:27:15.265Z,40
2017-02-21T08:28:28.332Z,40
2017-02-21T08:29:40.994Z,60
2017-02-21T08:30:54.132Z,60
2017-02-21T08:32:07.251Z,80
2017-02-21T08:33:19.955Z,115
2017-02-21T08:34:33.043Z,105
2017-02-21T08:35:45.345Z,105
2017-02-21T08:36:58.015Z,115
2017-02-21T08:38:11.109Z,100
2017-02-21T08:39:24.172Z,85
2017-02-21T08:40:37.268Z,90
2017-02-21T08:41:50.324Z,85
2017-02-21T08:43:03.423Z,125
2017-02-21T08:44:16.453Z,160
2017-02-21T08:45:29.531Z,165
2017-02-21T08:46:42.601Z,160
2017-02-21T08:47:55.325Z,145
2017-02-21T08:49:08.402Z,120
2017-02-21T08:50:21.105Z,125
2017-02-21T08:51:34.175Z,145
2017-02-21T08:52:47.235Z,180
2017-02-21T08:53:59.172Z,190
2017-02-21T08:55:12.247Z,205
2017-02-21T08:56:25.296Z,165
2017-02-21T08:57:38.364Z,145
2017-02-21T08:58:51.438Z,170
2017-02-21T09:00:04.533Z,165
2017-02-21T09:01:17.603Z,180
2017-02-21T09:02:30.296Z,165
2017-02-21T09:03:43.346Z,155
2017-02-21T09:04:56.418Z,225
2017-02-21T09:06:09.129Z,205
2017-02-21T09:07:21.456Z,215
2017-02-21T09:08:34.151Z,160
2017-02-21T09:09:47.213Z,130
2017-02-21T09:10:59.922Z,120
2017-02-21T09:12:12.217Z,110
2017-02-21T09:13:25.262Z,95
2017-02-21T09:14:38.310Z,95
2017-02-21T09:15:51.372Z,85
2017-02-21T09:17:04.504Z,65
2017-02-21T09:18:17.560Z,75
2017-02-21T09:19:30.246Z,100
2017-02-21T09:20:43.356Z,140
2017-02-21T09:21:56.055Z,165
2017-02-21T09:23:09.104Z,200
2017-02-21T09:24:22.194Z,250
2017-02-21T09:25:35.272Z,255
2017-02-21T09:26:48.392Z,275
2017-02-21T09:28:01.439Z,235
2017-02-21T09:29:14.173Z,205
2017-02-21T09:30:27.253Z,170
2017-02-21T09:31:40.300Z,185
2017-02-21T09:32:53.372Z,195
2017-02-21T09:34:06.440Z,205
2017-02-21T09:35:19.159Z,245
2017-02-21T09:36:31.883Z,270
2017-02-21T09:37:44.918Z,265
2017-02-21T09:38:57.589Z,315
2017-02-21T09:40:10.324Z,335
2017-02-21T09:41:22.689Z,380
2017-02-21T09:42:35.759Z,375
2017-02-21T09:43:48.831Z,350
2017-02-21T09:45:01.501Z,390
2017-02-21T09:46:14.220Z,200
2017-02-21T09:47:27.319Z,240
2017-02-21T09:48:39.990Z,250
2017-02-21T09:49:52.683Z,240
2017-02-21T09:51:05.361Z,290
2017-02-21T09:52:18.426Z,315
2017-02-21T09:53:31.498Z,320
2017-02-21T09:54:44.589Z,325
2017-02-21T09:55:57.640Z,340
2017-02-21T09:57:09.962Z,305
2017-02-21T09:58:22.887Z,260
2017-02-21T09:59:35.952Z,235
2017-02-21T10:00:48.627Z,285
2017-02-21T10:02:01.365Z,275
2017-02-21T10:03:14.065Z,265
2017-02-21T10:04:27.135Z,255
2017-02-21T10:05:39.785Z,270
2017-02-21T10:06:52.906Z,235
2017-02-21T10:08:05.603Z,225
2017-02-21T10:09:18.322Z,190
2017-02-21T10:10:31.409Z,210
2017-02-21T10:11:44.103Z,260
2017-02-21T10:12:56.381Z,330
2017-02-21T10:14:09.454Z,200
2017-02-21T10:15:22.552Z,320
2017-02-21T10:16:35.268Z,380
2017-02-21T10:17:48.341Z,355
2017-02-21T10:19:01.006Z,445
2017-02-21T10:20:13.726Z,430
2017-02-21T10:21:26.445Z,355
2017-02-21T10:22:39.475Z,405
2017-02-21T10:23:52.560Z,380
2017-02-21T10:25:04.836Z,350
2017-02-21T10:26:17.932Z,590
2017-02-21T10:27:31.041Z,655
2017-02-21T10:28:44.107Z,545
2017-02-21T10:29:57.194Z,560
2017-02-21T10:31:10.264Z,600
2017-02-21T10:32:22.196Z,570
2017-02-21T10:33:35.289Z,635
2017-02-21T10:34:48.351Z,720
2017-02-21T10:36:01.407Z,745
2017-02-21T10:37:14.067Z,580
2017-02-21T10:38:27.139Z,700
2017-02-21T10:39:40.259Z,640
2017-02-21T10:40:53.338Z,505
2017-02-21T10:42:05.989Z,470
2017-02-21T10:43:18.671Z,445
2017-02-21T10:44:31.003Z,370
2017-02-21T10:45:44.068Z,405
2017-02-21T10:46:56.396Z,640
2017-02-21T10:48:09.468Z,480
2017-02-21T10:49:22.560Z,550
2017-02-21T10:50:35.235Z,630
2017-02-21T10:51:48.296Z,415
2017-02-21T10:53:01.352Z,290
2017-02-21T10:54:14.047Z,335
2017-02-21T10:55:27.118Z,355
2017-02-21T10:56:40.208Z,505
2017-02-21T10:57:53.283Z,385
2017-02-21T10:59:06.372Z,350
2017-02-21T11:00:19.527Z,275
2017-02-21T11:01:32.622Z,320
2017-02-21T11:02:45.743Z,350
2017-02-21T11:03:58.807Z,310
2017-02-21T11:05:11.884Z,445
2017-02-21T11:06:24.954Z,370
2017-02-21T11:07:36.868Z,520
2017-02-21T11:08:49.549Z,350
2017-02-21T11:10:02.618Z,295
2017-02-21T11:11:14.185Z,265
2017-02-21T11:12:26.859Z,265
2017-02-21T11:13:39.957Z,265
2017-02-21T11:14:53.019Z,260
2017-02-21T11:16:05.302Z,315
2017-02-21T11:17:17.973Z,265
2017-02-21T11:18:30.690Z,260
2017-02-21T11:19:43.759Z,260
2017-02-21T11:20:56.828Z,285
2017-02-21T11:22:09.142Z,260
2017-02-21T11:23:22.173Z,260
2017-02-21T11:24:34.841Z,265
2017-02-21T11:25:47.957Z,260
2017-02-21T11:27:01.060Z,265
2017-02-21T11:28:13.408Z,260
2017-02-21T11:29:26.494Z,260
2017-02-21T11:30:39.549Z,260
2017-02-21T11:31:52.623Z,255
2017-02-21T11:33:05.667Z,310
2017-02-21T11:34:18.362Z,265
2017-02-21T11:35:31.429Z,265
2017-02-21T11:36:44.496Z,265
2017-02-21T11:37:57.222Z,270
2017-02-21T11:39:09.900Z,280
2017-02-21T11:40:22.973Z,365
2017-02-21T11:41:36.030Z,305
2017-02-21T11:42:48.730Z,375
2017-02-21T11:44:01.781Z,430
2017-02-21T11:45:14.101Z,460
2017-02-21T11:46:26.385Z,380
2017-02-21T11:47:39.089Z,445
2017-02-21T11:48:52.185Z,475
2017-02-21T11:50:05.280Z,315
2017-02-21T11:51:17.194Z,350
2017-02-21T11:52:29.827Z,255
2017-02-21T11:53:42.897Z,240
2017-02-21T11:54:55.967Z,405
2017-02-21T11:56:09.035Z,320
2017-02-21T11:57:22.107Z,290
2017-02-21T11:58:35.198Z,345
2017-02-21T11:59:48.276Z,360
2017-02-21T12:01:01.339Z,475
2017-02-21T12:02:13.982Z,630
2017-02-21T12:03:27.031Z,435
2017-02-21T12:04:40.107Z,345
2017-02-21T12:05:52.796Z,375
2017-02-21T12:07:05.873Z,510
2017-02-21T12:08:18.590Z,475
2017-02-21T12:09:31.318Z,590
2017-02-21T12:10:44.364Z,695
2017-02-21T12:11:57.025Z,485
2017-02-21T12:13:10.099Z,520
2017-02-21T12:14:23.150Z,655
2017-02-21T12:15:36.196Z,645
2017-02-21T12:16:48.532Z,585
2017-02-21T12:18:01.228Z,605
2017-02-21T12:19:13.927Z,690
2017-02-21T12:20:27.003Z,535
2017-02-21T12:21:39.307Z,440
2017-02-21T12:22:52.396Z,345
2017-02-21T12:24:05.470Z,545
2017-02-21T12:25:18.166Z,500
2017-02-21T12:26:30.111Z,495
2017-02-21T12:27:43.184Z,555
2017-02-21T12:28:56.255Z,440
2017-02-21T12:30:08.574Z,505
2017-02-21T12:31:21.263Z,620
2017-02-21T12:32:33.960Z,665
2017-02-21T12:33:47.063Z,605
2017-02-21T12:35:00.155Z,390
2017-02-21T12:36:12.454Z,420
2017-02-21T12:37:25.176Z,605
2017-02-21T12:38:37.843Z,425
2017-02-21T12:39:50.914Z,295
2017-02-21T12:41:03.589Z,260
2017-02-21T12:42:16.673Z,270
2017-02-21T12:43:29.743Z,265
2017-02-21T12:44:42.873Z,280
2017-02-21T12:45:55.936Z,275
2017-02-21T12:47:08.614Z,300
2017-02-21T12:48:21.685Z,280
2017-02-21T12:49:34.783Z,290
2017-02-21T12:50:47.876Z,280
2017-02-21T12:52:00.603Z,310
2017-02-21T12:53:12.547Z,300
2017-02-21T12:54:25.237Z,370
2017-02-21T12:55:38.315Z,420
2017-02-21T12:56:51.382Z,735
2017-02-21T12:58:04.103Z,600
2017-02-21T12:59:16.802Z,670
2017-02-21T13:00:29.892Z,580
2017-02-21T13:01:42.586Z,530
2017-02-21T13:02:55.661Z,350
2017-02-21T13:04:08.727Z,320
2017-02-21T13:05:21.824Z,455
2017-02-21T13:06:34.919Z,555
2017-02-21T13:07:47.999Z,535
2017-02-21T13:09:01.112Z,500
2017-02-21T13:10:13.790Z,535
2017-02-21T13:11:26.883Z,550
2017-02-21T13:12:39.970Z,580
2017-02-21T13:13:53.030Z,645
2017-02-21T13:15:06.147Z,635
2017-02-21T13:16:18.866Z,615
2017-02-21T13:17:31.179Z,450
2017-02-21T13:18:43.511Z,370
2017-02-21T13:19:56.803Z,360
2017-02-21T13:21:09.874Z,375
2017-02-21T13:22:22.577Z,365
2017-02-21T13:23:35.263Z,320
2017-02-21T13:24:48.333Z,405
2017-02-21T13:26:01.399Z,540
2017-02-21T13:27:13.695Z,575
2017-02-21T13:28:26.753Z,530
2017-02-21T13:29:39.427Z,520
2017-02-21T13:30:52.119Z,530
2017-02-21T13:32:04.816Z,475
2017-02-21T13:33:17.508Z,475
2017-02-21T13:34:30.198Z,450
2017-02-21T13:35:42.897Z,460
2017-02-21T13:36:55.612Z,415
2017-02-21T13:38:07.886Z,370
2017-02-21T13:39:20.964Z,335
2017-02-21T13:40:34.033Z,305
2017-02-21T13:41:47.156Z,345
2017-02-21T13:42:59.846Z,345
2017-02-21T13:44:12.924Z,335
2017-02-21T13:45:25.237Z,365
2017-02-21T13:46:38.315Z,430
2017-02-21T13:47:51.387Z,410
2017-02-21T13:49:04.101Z,425
2017-02-21T13:50:16.792Z,315
2017-02-21T13:51:29.116Z,310
2017-02-21T13:52:42.236Z,300
2017-02-21T13:53:54.512Z,295
2017-02-21T13:55:07.203Z,285
2017-02-21T13:56:19.931Z,295
2017-02-21T13:57:33.006Z,305
2017-02-21T13:58:46.120Z,310
2017-02-21T13:59:59.191Z,350
2017-02-21T14:01:12.254Z,360
2017-02-21T14:02:24.960Z,360
2017-02-21T14:03:37.658Z,345
2017-02-21T14:06:02.529Z,450
2017-02-21T14:07:14.868Z,480
2017-02-21T14:08:27.912Z,420
2017-02-21T14:09:41.032Z,370
2017-02-21T14:10:53.685Z,385
2017-02-21T14:12:06.379Z,435
2017-02-21T14:13:19.425Z,415
2017-02-21T14:14:32.086Z,430
2017-02-21T14:15:45.136Z,445
2017-02-21T14:16:57.825Z,425
2017-02-21T14:18:10.504Z,465
2017-02-21T14:19:23.579Z,475
2017-02-21T14:20:36.618Z,485
2017-02-21T14:21:49.309Z,570
2017-02-21T14:23:02.381Z,545
2017-02-21T14:24:14.662Z,420
2017-02-21T14:25:27.775Z,410
2017-02-21T14:26:40.843Z,430
2017-02-21T14:27:53.896Z,405
2017-02-21T14:29:06.952Z,415
2017-02-21T14:30:20.037Z,380
2017-02-21T14:31:33.075Z,385
2017-02-21T14:32:45.354Z,355
2017-02-21T14:33:58.429Z,355
2017-02-21T14:35:11.467Z,425
2017-02-21T14:36:24.559Z,445
2017-02-21T14:37:37.631Z,325
2017-02-21T14:38:50.676Z,275
2017-02-21T14:40:03.757Z,315
2017-02-21T14:41:16.077Z,345
2017-02-21T14:42:29.150Z,355
2017-02-21T14:43:42.172Z,360
2017-02-21T14:44:54.867Z,315
2017-02-21T14:46:07.187Z,285
2017-02-21T14:47:19.483Z,290
2017-02-21T14:48:32.554Z,320
2017-02-21T14:49:45.647Z,345
2017-02-21T14:50:58.336Z,330
2017-02-21T14:52:11.017Z,275
2017-02-21T14:53:23.757Z,285
2017-02-21T14:54:36.855Z,245
2017-02-21T14:55:49.530Z,230
2017-02-21T14:57:02.198Z,250
2017-02-21T14:58:15.122Z,240
2017-02-21T14:59:28.166Z,205
2017-02-21T15:00:41.252Z,180
2017-02-21T15:01:53.924Z,165
2017-02-21T15:03:06.972Z,135
2017-02-21T15:04:20.075Z,175
2017-02-21T15:05:32.727Z,130
2017-02-21T15:06:45.817Z,95
2017-02-21T15:07:58.914Z,85
2017-02-21T15:09:12.000Z,90
2017-02-21T15:10:25.071Z,85
2017-02-21T15:11:38.151Z,80
2017-02-21T15:12:50.838Z,75
2017-02-21T15:14:03.914Z,75
2017-02-21T15:15:17.013Z,95
2017-02-21T15:16:30.074Z,85
2017-02-21T15:17:42.736Z,110
2017-02-21T15:18:55.816Z,175
2017-02-21T15:20:08.844Z,160
2017-02-21T15:21:21.519Z,150
2017-02-21T15:22:34.613Z,150
2017-02-21T15:23:47.697Z,150
2017-02-21T15:25:00.406Z,150
2017-02-21T15:26:13.448Z,155
2017-02-21T15:27:26.526Z,155
2017-02-21T15:28:39.619Z,150
2017-02-21T15:29:52.311Z,145
2017-02-21T15:31:05.365Z,140
2017-02-21T15:32:17.270Z,135
2017-02-21T15:33:30.370Z,130
2017-02-21T15:34:43.054Z,125
2017-02-21T15:35:56.133Z,135
2017-02-21T15:37:09.186Z,130
2017-02-21T15:38:22.236Z,125
2017-02-21T15:39:35.324Z,120
2017-02-21T15:40:48.373Z,115
2017-02-21T15:42:01.095Z,110
2017-02-21T15:43:14.144Z,110
2017-02-21T15:44:27.236Z,105
2017-02-21T15:45:39.908Z,105
2017-02-21T15:46:52.581Z,105
2017-02-21T15:48:05.628Z,100
2017-02-21T15:49:17.929Z,100
2017-02-21T15:50:30.998Z,100
2017-02-21T15:51:44.088Z,100
2017-02-21T15:52:57.150Z,100
2017-02-21T15:54:09.862Z,95
2017-02-21T15:55:22.882Z,90
2017-02-21T15:56:35.967Z,85
2017-02-21T15:57:49.045Z,80
2017-02-21T15:59:01.734Z,75
2017-02-21T16:00:14.055Z,75
2017-02-21T16:01:27.183Z,70
2017-02-21T16:02:40.255Z,65
2017-02-21T16:03:52.971Z,65
2017-02-21T16:05:06.037Z,60
2017-02-21T16:06:18.738Z,60
2017-02-21T16:07:31.811Z,55
2017-02-21T16:08:44.871Z,50
2017-02-21T16:09:57.528Z,50
2017-02-21T16:11:10.214Z,45
2017-02-21T16:12:22.885Z,40
2017-02-21T16:13:35.966Z,40
2017-02-21T16:14:49.013Z,35
2017-02-21T16:16:01.709Z,35
2017-02-21T16:17:14.797Z,30
2017-02-21T16:18:27.863Z,30
2017-02-21T16:19:40.947Z,25
2017-02-21T16:20:54.022Z,25
2017-02-21T16:22:07.160Z,20
2017-02-21T16:23:19.833Z,20
2017-02-21T16:24:32.881Z,20
2017-02-21T16:25:45.951Z,15
2017-02-21T16:26:58.988Z,15
2017-02-21T16:28:12.037Z,15
2017-02-21T16:29:24.352Z,10
2017-02-21T16:30:37.077Z,10
2017-02-21T16:31:49.752Z,10
2017-02-21T16:33:02.418Z,10
2017-02-21T16:34:14.727Z,5
2017-02-21T16:35:27.407Z,5
2017-02-21T16:36:40.485Z,5
2017-02-21T16:37:53.552Z,5
2017-02-21T16:39:06.272Z,5
2017-02-21T16:40:18.948Z,0
2017-02-21T16:41:31.994Z,0
2017-02-21T16:42:44.665Z,0
2017-02-21T16:43:57.693Z,0
2017-02-21T16:45:10.360Z,0
2017-02-21T16:46:22.273Z,0
2017-02-21T16:47:35.351Z,0
2017-02-21T16:48:48.447Z,0
2017-02-21T16:50:01.514Z,0
2017-02-21T16:51:14.191Z,0
2017-02-21T16:52:27.260Z,0
2017-02-21T16:53:39.924Z,0
2017-02-21T16:54:52.240Z,0
2017-02-21T16:56:04.899Z,0
2017-02-21T16:57:17.569Z,0
2017-02-21T16:58:30.904Z,0
2017-02-21T16:59:43.953Z,0
2017-02-21T17:00:56.656Z,0
2017-02-21T17:02:09.730Z,0
2017-02-21T17:03:22.824Z,0
2017-02-21T17:04:35.915Z,0
2017-02-21T17:05:49.004Z,0
2017-02-21T17:07:02.059Z,0
2017-02-21T17:08:14.774Z,0
2017-02-21T17:09:27.805Z,0
2017-02-21T17:10:40.870Z,0
2017-02-21T17:11:53.574Z,0
2017-02-21T17:13:06.665Z,0
2017-02-21T17:14:19.741Z,0
2017-02-21T17:15:32.821Z,0
2017-02-21T17:16:45.879Z,0
2017-02-21T17:17:58.938Z,0
2017-02-21T17:19:11.992Z,0